createdAt,value
2024-03-02T00:01:15.239Z,7.50
2024-03-02T00:03:45.116Z,7.50
2024-03-02T00:06:15.012Z,7.50
2024-03-02T00:08:43.436Z,7.50
2024-03-02T00:11:13.011Z,7.50
2024-03-02T00:13:41.865Z,7.50
2024-03-02T00:16:10.547Z,7.40
2024-03-02T00:18:39.807Z,7.40
2024-03-02T00:21:10.804Z,7.40
2024-03-02T00:23:40.931Z,7.40
2024-03-02T00:26:09.874Z,7.30
2024-03-02T00:28:39.846Z,7.40
2024-03-02T00:31:09.830Z,7.30
2024-03-02T00:33:41.457Z,7.30
2024-03-02T00:36:10.397Z,7.30
2024-03-02T00:38:48.767Z,7.30
2024-03-02T00:41:25.077Z,7.30
2024-03-02T00:44:01.550Z,7.20
2024-03-02T00:46:32.423Z,7.20
2024-03-02T00:49:02.032Z,7.20
2024-03-02T00:51:32.042Z,7.20
2024-03-02T00:54:05.603Z,7.10
2024-03-02T00:56:36.164Z,7.10
2024-03-02T00:59:04.747Z,7.10
2024-03-02T01:01:33.249Z,7.00
2024-03-02T01:04:01.692Z,7.10
2024-03-02T01:06:30.072Z,7.00
2024-03-02T01:08:58.559Z,7.00
2024-03-02T01:11:28.799Z,7.10
2024-03-02T01:13:57.357Z,7.10
2024-03-02T01:16:26.091Z,7.00
2024-03-02T01:18:54.569Z,7.00
2024-03-02T01:21:23.052Z,6.90
2024-03-02T01:23:51.526Z,6.90
2024-03-02T01:26:19.820Z,6.90
2024-03-02T01:28:49.860Z,6.80
2024-03-02T01:31:18.221Z,6.80
2024-03-02T01:33:46.581Z,6.80
2024-03-02T01:36:15.066Z,6.70
2024-03-02T01:38:43.646Z,6.70
2024-03-02T01:41:12.883Z,6.70
2024-03-02T01:43:42.296Z,6.60
2024-03-02T01:46:12.573Z,6.60
2024-03-02T01:48:40.908Z,6.60
2024-03-02T01:51:09.393Z,6.60
2024-03-02T01:53:37.765Z,6.50
2024-03-02T01:56:06.630Z,6.50
2024-03-02T01:58:35.055Z,6.50
2024-03-02T02:01:03.433Z,6.40
2024-03-02T02:03:33.332Z,6.40
2024-03-02T02:06:01.859Z,6.40
2024-03-02T02:08:30.158Z,6.40
2024-03-02T02:10:58.614Z,6.30
2024-03-02T02:13:27.194Z,6.30
2024-03-02T02:15:55.754Z,6.30
2024-03-02T02:18:24.366Z,6.30
2024-03-02T02:20:54.209Z,6.30
2024-03-02T02:23:23.947Z,6.20
2024-03-02T02:25:52.304Z,6.20
2024-03-02T02:28:20.638Z,6.20
2024-03-02T02:30:49.020Z,6.20
2024-03-02T02:33:17.502Z,6.20
2024-03-02T02:35:45.977Z,6.20
2024-03-02T02:38:13.312Z,6.10
2024-03-02T02:40:43.325Z,6.10
2024-03-02T02:43:11.901Z,6.10
2024-03-02T02:45:40.251Z,6.10
2024-03-02T02:48:09.173Z,6.00
2024-03-02T02:50:37.650Z,6.00
2024-03-02T02:53:06.207Z,6.00
2024-03-02T02:55:34.535Z,6.00
2024-03-02T02:58:04.301Z,6.00
2024-03-02T03:00:32.780Z,6.00
2024-03-02T03:03:01.144Z,6.00
2024-03-02T03:05:29.494Z,6.00
2024-03-02T03:07:58.056Z,5.90
2024-03-02T03:10:28.180Z,5.90
2024-03-02T03:12:57.497Z,5.90
2024-03-02T03:15:27.728Z,5.90
2024-03-02T03:17:56.226Z,5.90
2024-03-02T03:20:26.048Z,5.90
2024-03-02T03:22:54.425Z,5.90
2024-03-02T03:25:22.879Z,5.90
2024-03-02T03:27:51.708Z,5.80
2024-03-02T03:30:20.154Z,5.80
2024-03-02T03:32:50.323Z,5.80
2024-03-02T03:35:19.764Z,5.80
2024-03-02T03:37:48.116Z,5.80
2024-03-02T03:40:16.651Z,5.80
2024-03-02T03:42:45.762Z,5.80
2024-03-02T03:45:14.329Z,5.80
2024-03-02T03:47:42.734Z,5.70
2024-03-02T03:50:13.610Z,5.70
2024-03-02T03:52:42.011Z,5.70
2024-03-02T03:55:11.350Z,5.70
2024-03-02T03:57:39.845Z,5.70
2024-03-02T04:00:11.455Z,5.70
2024-03-02T04:02:42.785Z,5.70
2024-03-02T04:05:12.992Z,5.70
2024-03-02T04:07:42.338Z,5.70
2024-03-02T04:10:11.737Z,5.70
2024-03-02T04:12:40.646Z,5.70
2024-03-02T04:15:09.769Z,5.70
2024-03-02T04:17:38.274Z,5.70
2024-03-02T04:20:07.688Z,5.70
2024-03-02T04:22:37.823Z,5.70
2024-03-02T04:25:08.642Z,5.70
2024-03-02T04:27:37.540Z,5.80
2024-03-02T04:30:08.005Z,5.80
2024-03-02T04:32:37.661Z,5.80
2024-03-02T04:35:06.898Z,5.80
2024-03-02T04:37:38.390Z,5.80
2024-03-02T04:40:10.243Z,5.80
2024-03-02T04:42:38.848Z,5.80
2024-03-02T04:45:08.310Z,5.80
2024-03-02T04:47:36.611Z,5.80
2024-03-02T04:50:05.370Z,5.80
2024-03-02T04:52:33.671Z,5.80
2024-03-02T04:55:20.859Z,5.80
2024-03-02T04:57:49.395Z,5.80
2024-03-02T05:00:18.776Z,5.80
2024-03-02T05:02:47.089Z,5.80
2024-03-02T05:05:16.421Z,5.80
2024-03-02T05:07:45.363Z,5.80
2024-03-02T05:10:15.753Z,5.80
2024-03-02T05:12:58.573Z,5.80
2024-03-02T05:15:27.681Z,5.80
2024-03-02T05:17:58.243Z,5.70
2024-03-02T05:20:26.658Z,5.70
2024-03-02T05:22:54.986Z,5.70
2024-03-02T05:25:24.964Z,5.70
2024-03-02T05:27:53.320Z,5.70
2024-03-02T05:30:22.058Z,5.70
2024-03-02T05:32:50.349Z,5.70
2024-03-02T05:35:18.961Z,5.70
2024-03-02T05:37:47.253Z,5.70
2024-03-02T05:40:16.609Z,5.60
2024-03-02T05:42:46.486Z,5.60
2024-03-02T05:45:18.314Z,5.60
2024-03-02T05:47:46.749Z,5.60
2024-03-02T05:50:15.324Z,5.60
2024-03-02T05:52:43.836Z,5.60
2024-03-02T05:55:12.121Z,5.60
2024-03-02T05:57:56.794Z,5.60
2024-03-02T06:00:26.729Z,5.60
2024-03-02T06:02:55.078Z,5.60
2024-03-02T06:05:23.518Z,5.60
2024-03-02T06:07:51.786Z,5.50
2024-03-02T06:10:20.150Z,5.50
2024-03-02T06:12:48.531Z,5.50
2024-03-02T06:15:17.018Z,5.50
2024-03-02T06:17:46.760Z,5.50
2024-03-02T06:20:15.376Z,5.50
2024-03-02T06:22:43.665Z,5.50
2024-03-02T06:25:12.128Z,5.50
2024-03-02T06:27:40.429Z,5.50
2024-03-02T06:30:09.609Z,5.40
2024-03-02T06:32:38.067Z,5.40
2024-03-02T06:35:11.148Z,5.40
2024-03-02T06:37:40.525Z,5.40
2024-03-02T06:40:09.989Z,5.40
2024-03-02T06:42:38.525Z,5.40
2024-03-02T06:45:07.816Z,5.40
2024-03-02T06:47:36.263Z,5.40
2024-03-02T06:50:04.792Z,5.40
2024-03-02T06:52:34.487Z,5.40
2024-03-02T06:55:02.905Z,5.40
2024-03-02T06:57:31.273Z,5.40
2024-03-02T07:00:00.250Z,5.40
2024-03-02T07:02:29.117Z,5.40
2024-03-02T07:04:57.508Z,5.50
2024-03-02T07:07:25.922Z,5.50
2024-03-02T07:09:55.812Z,5.50
2024-03-02T07:12:24.242Z,5.50
2024-03-02T07:15:26.118Z,5.50
2024-03-02T07:17:54.608Z,5.50
2024-03-02T07:20:23.009Z,5.60
2024-03-02T07:22:51.321Z,5.60
2024-03-02T07:27:54.148Z,5.60
2024-03-02T07:30:22.669Z,5.60
2024-03-02T07:32:52.994Z,5.70
2024-03-02T07:35:23.017Z,5.70
2024-03-02T07:37:51.627Z,5.70
2024-03-02T07:40:21.460Z,5.70
2024-03-02T07:42:49.891Z,5.70
2024-03-02T07:45:18.367Z,5.80
2024-03-02T07:47:46.975Z,5.80
2024-03-02T07:50:15.331Z,5.80
2024-03-02T07:52:43.639Z,5.90
2024-03-02T07:55:12.064Z,5.90
2024-03-02T07:57:42.519Z,5.90
2024-03-02T08:00:11.764Z,6.00
2024-03-02T08:02:43.545Z,6.00
2024-03-02T08:05:12.252Z,6.00
2024-03-02T08:07:40.638Z,6.10
2024-03-02T08:10:10.076Z,6.10
2024-03-02T08:12:38.423Z,6.10
2024-03-02T08:15:09.050Z,6.20
2024-03-02T08:17:38.421Z,6.20
2024-03-02T08:20:09.302Z,6.30
2024-03-02T08:22:37.687Z,6.30
2024-03-02T08:25:09.301Z,6.40
2024-03-02T08:27:38.074Z,6.50
2024-03-02T08:30:12.713Z,6.60
2024-03-02T08:32:48.697Z,6.80
2024-03-02T08:35:48.789Z,6.90
2024-03-02T08:38:17.280Z,7.00
2024-03-02T08:40:46.057Z,7.10
2024-03-02T08:43:14.584Z,7.20
2024-03-02T08:45:44.898Z,7.30
2024-03-02T08:48:13.424Z,7.40
2024-03-02T08:50:41.744Z,7.50
2024-03-02T08:53:10.070Z,7.50
2024-03-02T08:55:38.345Z,7.60
2024-03-02T08:58:07.145Z,7.70
2024-03-02T09:00:35.851Z,7.70
2024-03-02T09:03:06.282Z,7.80
2024-03-02T09:05:34.693Z,7.90
2024-03-02T09:08:04.714Z,8.00
2024-03-02T09:10:33.101Z,8.00
2024-03-02T09:13:01.875Z,8.10
2024-03-02T09:15:30.926Z,8.20
2024-03-02T09:17:59.976Z,8.30
2024-03-02T09:20:29.885Z,8.40
2024-03-02T09:22:58.393Z,8.50
2024-03-02T09:25:26.919Z,8.60
2024-03-02T09:27:55.332Z,8.70
2024-03-02T09:30:23.656Z,8.70
2024-03-02T09:32:52.017Z,8.90
2024-03-02T09:35:20.357Z,8.90
2024-03-02T09:37:50.287Z,9.00
2024-03-02T09:40:18.986Z,9.10
2024-03-02T09:42:53.131Z,9.20
2024-03-02T09:45:25.941Z,9.20
2024-03-02T09:47:54.284Z,9.30
2024-03-02T09:50:22.812Z,9.40
2024-03-02T09:52:52.755Z,9.50
2024-03-02T09:55:21.603Z,9.60
2024-03-02T09:57:51.012Z,9.70
2024-03-02T10:00:20.811Z,9.80
2024-03-02T10:02:50.346Z,9.90
2024-03-02T10:05:29.449Z,9.90
2024-03-02T10:08:05.027Z,10.00
2024-03-02T10:10:43.075Z,10.10
2024-03-02T10:13:12.820Z,10.30
2024-03-02T10:15:43.367Z,10.30
2024-03-02T10:18:13.202Z,10.40
2024-03-02T10:20:42.881Z,10.50
2024-03-02T10:23:17.732Z,10.50
2024-03-02T10:25:54.698Z,10.60
2024-03-02T10:28:29.116Z,10.70
2024-03-02T10:30:57.998Z,10.70
2024-03-02T10:33:27.267Z,10.80
2024-03-02T10:35:55.704Z,10.90
2024-03-02T10:38:25.421Z,10.90
2024-03-02T10:40:54.024Z,11.00
2024-03-02T10:43:23.398Z,11.00
2024-03-02T10:45:52.855Z,11.10
2024-03-02T10:48:22.833Z,11.20
2024-03-02T10:50:52.372Z,11.20
2024-03-02T10:53:20.957Z,11.30
2024-03-02T10:56:03.103Z,11.30
2024-03-02T10:58:35.438Z,11.40
2024-03-02T11:01:08.505Z,11.40
2024-03-02T11:03:39.567Z,11.50
2024-03-02T11:06:11.787Z,11.50
2024-03-02T11:08:42.529Z,11.60
2024-03-02T11:11:17.834Z,11.60
2024-03-02T11:13:52.541Z,11.60
2024-03-02T11:16:31.304Z,11.70
2024-03-02T11:19:00.229Z,11.70
2024-03-02T11:21:28.907Z,11.80
2024-03-02T11:23:57.463Z,11.80
2024-03-02T11:26:29.636Z,11.90
2024-03-02T11:28:59.671Z,11.90
2024-03-02T11:32:01.676Z,12.00
2024-03-02T11:34:34.193Z,12.00
2024-03-02T11:37:04.669Z,12.00
2024-03-02T11:39:34.169Z,12.10
2024-03-02T11:42:04.205Z,12.10
2024-03-02T11:44:36.606Z,12.10
2024-03-02T11:47:07.935Z,12.20
2024-03-02T11:49:41.092Z,12.20
2024-03-02T11:52:10.634Z,12.30
2024-03-02T11:54:40.769Z,12.30
2024-03-02T11:57:10.746Z,12.30
2024-03-02T11:59:39.704Z,12.40
2024-03-02T12:02:08.135Z,12.40
2024-03-02T12:04:37.501Z,12.40
2024-03-02T12:07:06.927Z,12.50
2024-03-02T12:09:35.730Z,12.50
2024-03-02T12:12:08.492Z,12.50
2024-03-02T12:14:40.331Z,12.60
2024-03-02T12:17:09.151Z,12.60
2024-03-02T12:19:37.632Z,12.70
2024-03-02T12:22:08.368Z,12.70
2024-03-02T12:24:38.626Z,12.80
2024-03-02T12:27:08.084Z,12.80
2024-03-02T12:29:37.869Z,12.80
2024-03-02T12:32:07.558Z,12.90
2024-03-02T12:34:36.222Z,12.90
2024-03-02T12:37:06.513Z,13.00
2024-03-02T12:39:35.110Z,13.00
2024-03-02T12:42:05.778Z,13.00
2024-03-02T12:44:34.479Z,13.10
2024-03-02T12:47:04.422Z,13.10
2024-03-02T12:49:33.575Z,13.10
2024-03-02T12:52:02.199Z,13.20
2024-03-02T12:54:30.662Z,13.20
2024-03-02T12:56:59.586Z,13.20
2024-03-02T12:59:28.852Z,13.30
2024-03-02T13:01:59.208Z,13.30
2024-03-02T13:04:30.343Z,13.30
2024-03-02T13:06:59.374Z,13.40
2024-03-02T13:09:28.878Z,13.40
2024-03-02T13:11:58.147Z,13.50
2024-03-02T13:14:27.532Z,13.50
2024-03-02T13:16:55.964Z,13.60
2024-03-02T13:19:24.432Z,13.60
2024-03-02T13:21:54.381Z,13.60
2024-03-02T13:24:22.774Z,13.70
2024-03-02T13:26:53.359Z,13.70
2024-03-02T13:29:21.887Z,13.70
2024-03-02T13:31:50.815Z,13.70
2024-03-02T13:34:19.471Z,13.70
2024-03-02T13:36:47.826Z,13.70
2024-03-02T13:39:17.648Z,13.70
2024-03-02T13:41:53.765Z,13.80
2024-03-02T13:44:22.969Z,13.80
2024-03-02T13:46:52.671Z,13.80
2024-03-02T13:49:21.159Z,13.90
2024-03-02T13:51:49.794Z,13.90
2024-03-02T13:54:20.461Z,13.90
2024-03-02T13:56:49.603Z,13.90
2024-03-02T13:59:17.966Z,14.00
2024-03-02T14:01:47.311Z,14.00
2024-03-02T14:04:15.852Z,14.00
2024-03-02T14:06:45.533Z,14.00
2024-03-02T14:09:14.236Z,14.00
2024-03-02T14:11:43.881Z,14.00
2024-03-02T14:14:12.282Z,14.00
2024-03-02T14:16:40.911Z,14.00
2024-03-02T14:19:10.639Z,14.00
2024-03-02T14:21:39.216Z,14.10
2024-03-02T14:24:08.223Z,14.10
2024-03-02T14:26:37.570Z,14.10
2024-03-02T14:29:08.475Z,14.10
2024-03-02T14:31:36.940Z,14.10
2024-03-02T14:34:05.555Z,14.10
2024-03-02T14:36:35.324Z,14.10
2024-03-02T14:39:05.325Z,14.20
2024-03-02T14:41:33.838Z,14.20
2024-03-02T14:44:02.143Z,14.20
2024-03-02T14:46:32.200Z,14.20
2024-03-02T14:49:01.009Z,14.20
2024-03-02T14:51:31.285Z,14.20
2024-03-02T14:53:59.696Z,14.20
2024-03-02T14:56:28.259Z,14.30
2024-03-02T14:58:56.588Z,14.30
2024-03-02T15:01:25.916Z,14.30
2024-03-02T15:03:56.275Z,14.30
2024-03-02T15:06:24.826Z,14.20
2024-03-02T15:08:55.458Z,14.20
2024-03-02T15:11:24.355Z,14.20
2024-03-02T15:13:52.741Z,14.20
2024-03-02T15:16:21.314Z,14.30
2024-03-02T15:18:49.669Z,14.30
2024-03-02T15:21:21.126Z,14.30
2024-03-02T15:23:50.759Z,14.30
2024-03-02T15:26:19.374Z,14.30
2024-03-02T15:28:47.769Z,14.30
2024-03-02T15:31:16.328Z,14.30
2024-03-02T15:33:45.053Z,14.30
2024-03-02T15:36:13.814Z,14.30
2024-03-02T15:38:44.034Z,14.30
2024-03-02T15:41:12.510Z,14.20
2024-03-02T15:43:43.462Z,14.20
2024-03-02T15:46:12.083Z,14.20
2024-03-02T15:48:40.645Z,14.10
2024-03-02T15:51:09.402Z,14.10
2024-03-02T15:53:39.266Z,14.10
2024-03-02T15:56:10.564Z,14.10
2024-03-02T15:58:39.782Z,14.10
2024-03-02T16:01:08.714Z,14.10
2024-03-02T16:03:37.161Z,14.00
2024-03-02T16:06:06.139Z,14.00
2024-03-02T16:08:34.714Z,14.00
2024-03-02T16:11:04.454Z,14.00
2024-03-02T16:13:34.591Z,13.90
2024-03-02T16:16:03.159Z,13.90
2024-03-02T16:18:32.025Z,13.80
2024-03-02T16:21:00.510Z,13.80
2024-03-02T16:23:28.779Z,13.80
2024-03-02T16:25:57.140Z,13.70
2024-03-02T16:28:25.470Z,13.70
2024-03-02T16:30:55.544Z,13.70
2024-03-02T16:33:26.143Z,13.60
2024-03-02T16:35:54.775Z,13.60
2024-03-02T16:38:23.706Z,13.50
2024-03-02T16:40:52.220Z,13.50
2024-03-02T16:43:21.246Z,13.50
2024-03-02T16:45:49.580Z,13.40
2024-03-02T16:48:19.830Z,13.40
2024-03-02T16:50:48.300Z,13.30
2024-03-02T16:53:18.483Z,13.30
2024-03-02T16:55:46.865Z,13.20
2024-03-02T16:58:15.793Z,13.20
2024-03-02T17:00:46.154Z,13.10
2024-03-02T17:03:14.551Z,13.10
2024-03-02T17:05:44.316Z,13.10
2024-03-02T17:08:12.632Z,13.00
2024-03-02T17:10:41.436Z,13.00
2024-03-02T17:13:09.938Z,12.90
2024-03-02T17:15:38.569Z,12.90
2024-03-02T17:18:07.368Z,12.80
2024-03-02T17:20:35.987Z,12.80
2024-03-02T17:23:06.185Z,12.70
2024-03-02T17:25:34.635Z,12.70
2024-03-02T17:28:21.179Z,12.60
2024-03-02T17:30:49.599Z,12.60
2024-03-02T17:33:18.221Z,12.60
2024-03-02T17:35:48.617Z,12.50
2024-03-02T17:38:18.665Z,12.50
2024-03-02T17:40:47.098Z,12.40
2024-03-02T17:43:15.564Z,12.40
2024-03-02T17:45:44.244Z,12.30
2024-03-02T17:48:13.261Z,12.30
2024-03-02T17:50:41.794Z,12.20
2024-03-02T17:53:10.105Z,12.20
2024-03-02T17:55:39.877Z,12.20
2024-03-02T17:58:08.358Z,12.10
2024-03-02T18:00:37.412Z,12.10
2024-03-02T18:03:06.615Z,12.00
2024-03-02T18:05:36.825Z,12.00
2024-03-02T18:08:07.039Z,12.00
2024-03-02T18:10:35.333Z,11.90
2024-03-02T18:13:05.456Z,11.90
2024-03-02T18:15:33.946Z,11.90
2024-03-02T18:18:02.694Z,11.80
2024-03-02T18:20:31.820Z,11.80
2024-03-02T18:23:00.758Z,11.70
2024-03-02T18:25:29.311Z,11.70
2024-03-02T18:27:57.780Z,11.70
2024-03-02T18:30:27.576Z,11.70
2024-03-02T18:32:55.942Z,11.60
2024-03-02T18:35:24.321Z,11.60
2024-03-02T18:37:52.659Z,11.50
2024-03-02T18:40:21.168Z,11.50
2024-03-02T18:42:49.882Z,11.40
2024-03-02T18:45:18.413Z,11.40
2024-03-02T18:47:48.522Z,11.40
2024-03-02T18:50:17.641Z,11.30
2024-03-02T18:52:47.745Z,11.30
2024-03-02T18:55:16.376Z,11.20
2024-03-02T18:57:44.883Z,11.20
2024-03-02T19:00:14.994Z,11.20
2024-03-02T19:02:43.446Z,11.10
2024-03-02T19:05:13.472Z,11.10
2024-03-02T19:07:42.845Z,11.00
2024-03-02T19:10:12.218Z,11.00
2024-03-02T19:12:42.573Z,11.00
2024-03-02T19:15:13.118Z,10.90
2024-03-02T19:17:41.622Z,10.90
2024-03-02T19:20:13.091Z,10.90
2024-03-02T19:22:41.610Z,10.80
2024-03-02T19:25:12.499Z,10.80
2024-03-02T19:27:41.216Z,10.80
2024-03-02T19:30:10.842Z,10.70
2024-03-02T19:32:39.522Z,10.70
2024-03-02T19:35:09.196Z,10.60
2024-03-02T19:37:41.184Z,10.60
2024-03-02T19:40:12.099Z,10.60
2024-03-02T19:42:40.517Z,10.50
2024-03-02T19:45:09.142Z,10.50
2024-03-02T19:47:37.512Z,10.50
2024-03-02T19:50:06.725Z,10.50
2024-03-02T19:52:35.304Z,10.40
2024-03-02T19:55:07.033Z,10.40
2024-03-02T19:57:36.982Z,10.40
2024-03-02T20:00:07.903Z,10.40
2024-03-02T20:02:36.345Z,10.30
2024-03-02T20:05:05.392Z,10.30
2024-03-02T20:07:34.593Z,10.30
2024-03-02T20:10:07.649Z,10.30
2024-03-02T20:12:36.330Z,10.20
2024-03-02T20:15:05.730Z,10.20
2024-03-02T20:17:34.109Z,10.20
2024-03-02T20:20:04.316Z,10.20
2024-03-02T20:22:33.294Z,10.10
2024-03-02T20:25:01.743Z,10.10
2024-03-02T20:27:31.791Z,10.10
2024-03-02T20:30:00.853Z,10.10
2024-03-02T20:32:29.307Z,10.10
2024-03-02T20:34:57.705Z,10.00
2024-03-02T20:37:26.114Z,10.00
2024-03-02T20:39:56.581Z,10.00
2024-03-02T20:42:26.890Z,10.00
2024-03-02T20:44:56.821Z,10.00
2024-03-02T20:47:25.814Z,9.90
2024-03-02T20:49:54.629Z,9.90
2024-03-02T20:52:23.005Z,9.90
2024-03-02T20:54:51.472Z,9.80
2024-03-02T20:57:20.215Z,9.80
2024-03-02T20:59:49.646Z,9.80
2024-03-02T21:02:19.615Z,9.80
2024-03-02T21:04:48.848Z,9.80
2024-03-02T21:07:19.503Z,9.80
2024-03-02T21:09:47.923Z,9.70
2024-03-02T21:12:16.310Z,9.70
2024-03-02T21:14:44.657Z,9.70
2024-03-02T21:17:13.620Z,9.70
2024-03-02T21:19:43.918Z,9.60
2024-03-02T21:22:12.288Z,9.60
2024-03-02T21:24:42.961Z,9.60
2024-03-02T21:27:12.895Z,9.50
2024-03-02T21:29:41.629Z,9.50
2024-03-02T21:32:11.159Z,9.50
2024-03-02T21:34:39.558Z,9.50
2024-03-02T21:37:10.322Z,9.50
2024-03-02T21:39:43.255Z,9.40
2024-03-02T21:42:15.752Z,9.40
2024-03-02T21:44:44.037Z,9.40
2024-03-02T21:47:12.511Z,9.40
2024-03-02T21:49:40.939Z,9.40
2024-03-02T21:52:11.351Z,9.30
2024-03-02T21:54:40.077Z,9.30
2024-03-02T21:57:12.001Z,9.30
2024-03-02T21:59:40.661Z,9.30
2024-03-02T22:02:09.137Z,9.30
2024-03-02T22:04:37.786Z,9.20
2024-03-02T22:07:06.406Z,9.20
2024-03-02T22:09:36.486Z,9.20
2024-03-02T22:12:05.487Z,9.20
2024-03-02T22:14:34.014Z,9.10
2024-03-02T22:17:02.366Z,9.10
2024-03-02T22:19:30.782Z,9.10
2024-03-02T22:21:59.318Z,9.00
2024-03-02T22:24:27.804Z,9.00
2024-03-02T22:26:57.850Z,9.00
2024-03-02T22:29:26.151Z,9.00
2024-03-02T22:31:54.534Z,9.00
2024-03-02T22:34:23.632Z,8.90
2024-03-02T22:36:52.071Z,8.90
2024-03-02T22:39:20.609Z,8.90
2024-03-02T22:41:51.939Z,8.90
2024-03-02T22:44:21.862Z,8.80
2024-03-02T22:46:50.411Z,8.80
2024-03-02T22:49:18.907Z,8.80
2024-03-02T22:51:47.534Z,8.80
2024-03-02T22:54:15.879Z,8.80
2024-03-02T22:56:45.716Z,8.70
2024-03-02T22:59:15.354Z,8.70
2024-03-02T23:01:45.602Z,8.70
2024-03-02T23:04:14.349Z,8.70
2024-03-02T23:06:42.845Z,8.70
2024-03-02T23:09:12.779Z,8.60
2024-03-02T23:11:41.153Z,8.60
2024-03-02T23:14:09.426Z,8.60
2024-03-02T23:16:40.671Z,8.60
2024-03-02T23:19:10.756Z,8.60
2024-03-02T23:21:39.165Z,8.50
2024-03-02T23:24:07.491Z,8.50
2024-03-02T23:26:35.844Z,8.50
2024-03-02T23:29:04.515Z,8.50
2024-03-02T23:31:32.962Z,8.50
2024-03-02T23:34:05.226Z,8.50
2024-03-02T23:36:35.380Z,8.40
2024-03-02T23:39:05.942Z,8.40
2024-03-02T23:41:35.225Z,8.40
2024-03-02T23:44:03.635Z,8.40
2024-03-02T23:46:32.651Z,8.40
2024-03-02T23:49:01.094Z,8.40
2024-03-02T23:51:30.369Z,8.40
2024-03-02T23:54:00.338Z,8.40
2024-03-02T23:56:28.779Z,8.40
2024-03-02T23:58:58.256Z,8.30
